Hinton, OK

8:24 PM CDT on September 23, 2014 (GMT -0500)
El Reno | Change Station
CLOSE
Current Station
Airport
Location: El Reno,
Elevation: 1417 ft
Nearby Weather Stations

Elev 1417 ft 35.47 °N, 98.01 °W | Updated 9 minutes ago

Clear
Clear
72 °F
Feels Like 72 °F
N
10
Wind Variable Wind from SE

Today
High -- | Low -- °F
--% Chance of Precip.
Yesterday
High -- | Low -- °F
Precip. -- in
7:22 AM 7:28 PM
Waning Crescent, 0% visible
Pressure 30.07 in
Visibility 10.0 miles
Clouds Clear
Dew Point 50 °F
Humidity 46%
Rainfall 0.00 in
Snow Depth Not available.
UV 0 out of 12
Pollen 9.80 out of 12
Air Quality Not available.
Flu Activity Not available.
METAR KRQO 240115Z AUTO 14009KT 10SM CLR 22/10 A3007 RMK AO2

More Conditions Fewer Conditions

Pressure 30.07 in
Visibility 10.0 miles
Clouds Clear
Dew Point 50 °F
Humidity 46%
Rainfall 0.00 in
Snow Depth Not available.
UV 0 out of 12
Pollen 9.80 out of 12
Air Quality Not available.
Flu Activity Not available.
METAR KRQO 240115Z AUTO 14009KT 10SM CLR 22/10 A3007 RMK AO2

More Conditions Fewer Conditions

10-Day Weather Forecast

Almanac

Astronomy

Sep. 23, 2014 Rise Set
Actual Time 7:22 AM CDT 7:28 PM CDT
Civil Twilight 6:56 AM CDT 7:54 PM CDT
Nautical Twilight 6:27 AM CDT 8:23 PM CDT
Astronomical Twilight 5:57 AM CDT 8:53 PM CDT
Moon 6:48 AM CDT (9/23) 7:08 PM CDT (9/23)
Length of Visible Light 12h 57m
Length of Day
12h 06m
Tomorrow will be 2m 13s shorter.
Waning Crescent, 0% of the Moon is Illuminated
Today
Waning Crescent
Sep 24
New
Oct 1
First Quarter
Oct 8
Full
Oct 15
Last Quarter

Today's Extremes

State Highs State Lows

Community

WunderPhotos

Upload Photos

1,755,844 photos uploaded!

Nearby

Snow Depth

Station Depth Elevation
No new snow has been reported.

Earthquake Activity

City Distance Mag. Time & Date
Guthrie, Oklahoma 57 miles 2.5 10:07 AM CDT
2014-09-23
Helena, Oklahoma 78 miles 2.5 9:27 AM CDT
2014-09-23
Lindsay, Oklahoma 74 miles 3.0 8:37 AM CDT
2014-09-23
Boley, Oklahoma 102 miles 3.4 2:58 AM CDT
2014-09-23
Minimum magnitude displayed is 2.5.

Coastal Water Temperatures

Place Temperature
No Stations Reporting

Nearby Weather Stations